ENHD/HAU METAR and TAF weather

Enter ICAO airport designator
Station Type Date Time Source
ENHD METAR 2020/12/06 00:50 UTC NOAA

ENHD 060050Z AUTO 09009KT 9999 -RA SCT011/// 04/02 Q1002


Station Type Date Time Source
ENHD Decoded METAR 2020/12/06 00:50 UTC NOAA

Haugesund / Karmoy, Norway (ENHD) 59-21N 005-13E 24M
Dec 05, 2020 - 07:50 PM EST / 2020.12.06 0050 UTC
Wind: from the E (090 degrees) at 10 MPH (9 KT):0
Visibility: greater than 7 mile(s):0
Sky conditions: partly cloudy
Weather: light rain
Temperature: 39 F (4 C)
Dew Point: 35 F (2 C)
Relative Humidity: 86%
Pressure (altimeter): 29.59 in. Hg (1002 hPa)
ob: ENHD 060050Z AUTO 09009KT 9999 -RA SCT011/// 04/02 Q1002
cycle: 1

Station Type Date Time Source
ENHD TAF UTC NOAA

Error!

Example: see airport list